Crestline, KS (66728)

4:08 PM CDT on April 21, 2015 (GMT -0500)
ESE Cherokee Co Kansas | | Change Station
CLOSE
Current Station
Personal Weather Station
Location: Columbus, KS
Elevation: 951 ft
Nearby Weather Stations

Elev 951 ft 37.15 °N, 94.72 °W | Updated 4 minutes ago

Partly Cloudy
Partly Cloudy
72.1 °F
Feels Like 77 °F
N
13.0
Wind Variable Wind from SW
Gusts 17.0 mph

Today
High -- | Low -- °F
--% Chance of Precip.
Yesterday
High -- | Low -- °F
Precip. -- in
6:36 AM 7:58 PM
Waxing Crescent, 12% visible
Pressure 29.83 in
Visibility 10.0 miles
Clouds Scattered Clouds 6500 ft
Heat Index 77 °F
Dew Point 54 °F
Humidity 54%
Rainfall 0.00 in
Snow Depth Not available.
UV 5 out of 12
Pollen 10.40 out of 12
Air Quality Not available.
Flu Activity Sporadic
METAR KJLN 212053Z 25017G21KT 10SM SCT065 22/08 A2984 RMK AO2 PK WND 23026/1954 SLP100 T02170083 58024

More Conditions Fewer Conditions

Pressure 29.83 in
Visibility 10.0 miles
Clouds Scattered Clouds 6500 ft
Heat Index 77 °F
Dew Point 54 °F
Humidity 54%
Rainfall 0.00 in
Snow Depth Not available.
UV 5 out of 12
Pollen 10.40 out of 12
Air Quality Not available.
Flu Activity Sporadic
METAR KJLN 212053Z 25017G21KT 10SM SCT065 22/08 A2984 RMK AO2 PK WND 23026/1954 SLP100 T02170083 58024

More Conditions Fewer Conditions

10-Day Weather Forecast

Almanac

Astronomy

Apr. 21, 2015 Rise Set
Actual Time
Civil Twilight
Nautical Twilight
Astronomical Twilight
Moon
Length of Visible Light
Length of Day
Tomorrow will be .
, % of the Moon is Illuminated

Today's Extremes

State Highs State Lows

Community

WunderPhotos

Upload Photos

1,815,540 photos uploaded!

WunderBlogs® & News

Nearby

Air Quality

  Air Quality AQ Index Pollutant
Not available.

Snow Depth

Station Depth Elevation

Earthquake Activity

City Distance Mag. Time & Date
Minimum magnitude displayed is 2.5.

Coastal Water Temperatures

Place Temperature

Stations

Nearby Weather Stations

Station Location Temp. Windchill Dew Point Humidity Wind Precip. Elev Updated Type